Time;durP1;ratioP1;P1;durP2;ratioP2;P2;SDS_P1;SDS_P2;PMS_P1;PMS_P2;Temp;Humidity;BMP_temperature;BMP_pressure;BME280_temperature;BME280_humidity;BME280_pressure;Samples;Min_cycle;Max_cycle;Signal;HPM_P1;HPM_P2
2022/01/19 00:00:59;;;;;;;24.52;13.57;;;5.40;99.90;;;;;;5034248;28;20114;-75
2022/01/19 00:03:26;;;;;;;30.55;13.68;;;5.40;99.90;;;;;;5035424;28;20493;-75
2022/01/19 00:05:51;;;;;;;31.38;13.57;;;5.40;99.90;;;;;;5033450;28;20033;-75
2022/01/19 00:08:20;;;;;;;35.67;15.27;;;5.40;99.90;;;;;;5033917;28;20077;-75
2022/01/19 00:10:48;;;;;;;27.05;14.90;;;5.40;99.90;;;;;;5037036;28;20067;-75
2022/01/19 00:13:14;;;;;;;29.23;14.32;;;5.30;99.90;;;;;;5034140;28;20045;-75
2022/01/19 00:15:40;;;;;;;27.67;14.48;;;5.30;99.90;;;;;;5035760;28;20367;-75
2022/01/19 00:18:06;;;;;;;27.17;13.70;;;5.30;99.90;;;;;;5036964;28;20375;-75
2022/01/19 00:20:33;;;;;;;27.00;14.85;;;5.30;99.90;;;;;;5034611;28;20483;-75
2022/01/19 00:23:00;;;;;;;33.90;17.42;;;5.30;99.90;;;;;;5036587;28;20080;-75
2022/01/19 00:25:25;;;;;;;30.50;15.63;;;5.40;99.90;;;;;;5035407;28;20053;-75
2022/01/19 00:27:51;;;;;;;31.60;17.60;;;5.30;99.90;;;;;;5035771;28;20157;-74
2022/01/19 00:30:17;;;;;;;29.90;16.75;;;5.40;99.90;;;;;;5035994;28;20784;-75
2022/01/19 00:32:43;;;;;;;34.75;18.25;;;5.40;99.90;;;;;;5036936;28;20052;-75
2022/01/19 00:35:10;;;;;;;39.58;18.42;;;5.40;99.90;;;;;;5036803;28;20724;-75
2022/01/19 00:37:37;;;;;;;35.38;18.83;;;5.40;99.90;;;;;;5038119;28;20056;-75
2022/01/19 00:40:04;;;;;;;38.03;17.15;;;5.50;99.90;;;;;;5039474;28;20132;-75
2022/01/19 00:42:30;;;;;;;34.85;16.95;;;5.50;99.90;;;;;;5038522;28;20060;-75
2022/01/19 00:44:56;;;;;;;36.58;16.70;;;5.60;99.90;;;;;;5040711;28;20072;-75
2022/01/19 00:47:21;;;;;;;34.90;15.50;;;5.50;99.90;;;;;;5038401;28;20052;-75
2022/01/19 00:49:47;;;;;;;29.40;14.77;;;5.50;99.90;;;;;;5040539;28;20111;-75
2022/01/19 00:52:13;;;;;;;32.95;16.95;;;5.60;99.90;;;;;;5040770;28;20044;-75
2022/01/19 00:54:39;;;;;;;27.65;17.00;;;5.60;99.90;;;;;;5038217;28;20087;-75
2022/01/19 00:57:05;;;;;;;32.95;16.73;;;5.60;99.90;;;;;;5039262;28;20064;-75
2022/01/19 00:59:31;;;;;;;37.08;17.33;;;5.60;99.90;;;;;;5040543;28;20045;-75
2022/01/19 01:01:57;;;;;;;30.60;17.08;;;5.60;99.90;;;;;;5035440;28;20641;-75
2022/01/19 01:04:23;;;;;;;30.75;16.23;;;5.70;99.90;;;;;;5035264;28;20148;-75
2022/01/19 01:06:48;;;;;;;25.67;15.93;;;5.60;99.90;;;;;;5034613;28;20041;-75
2022/01/19 01:09:14;;;;;;;30.92;16.02;;;5.70;99.90;;;;;;5035085;28;20049;-75
2022/01/19 01:11:48;;;;;;;31.08;16.88;;;5.70;99.90;;;;;;5038200;28;20041;-75
2022/01/19 01:16:58;;;;;;;29.88;17.30;;;5.60;99.90;;;;;;5037218;28;20111;-75
2022/01/19 01:19:24;;;;;;;32.50;18.42;;;5.70;99.90;;;;;;5039459;28;20778;-75
2022/01/19 01:21:50;;;;;;;32.95;16.58;;;5.70;99.90;;;;;;5038782;28;20048;-75
2022/01/19 01:24:16;;;;;;;32.92;16.35;;;5.70;99.90;;;;;;5039161;28;20048;-75
2022/01/19 01:26:42;;;;;;;28.80;15.77;;;5.70;99.90;;;;;;5038858;28;20474;-75
2022/01/19 01:29:07;;;;;;;35.85;15.73;;;5.60;99.90;;;;;;5038328;28;20446;-75
2022/01/19 01:31:33;;;;;;;30.92;16.60;;;5.60;99.90;;;;;;5039988;28;20064;-75
2022/01/19 01:33:58;;;;;;;33.97;16.85;;;5.70;99.90;;;;;;5039730;28;20164;-75
2022/01/19 01:36:24;;;;;;;36.17;18.83;;;5.60;99.90;;;;;;5037039;28;20091;-75
2022/01/19 01:38:49;;;;;;;35.15;16.27;;;5.60;99.90;;;;;;5039567;28;20048;-75
2022/01/19 01:41:15;;;;;;;36.85;18.38;;;5.60;99.90;;;;;;5038191;28;20518;-75
2022/01/19 01:43:42;;;;;;;34.67;19.10;;;5.60;99.90;;;;;;5039749;28;20071;-75
2022/01/19 01:46:14;;;;;;;35.83;16.35;;;5.60;99.90;;;;;;5039984;28;20104;-75
2022/01/19 01:48:45;;;;;;;29.60;16.43;;;5.60;99.90;;;;;;5031646;28;20447;-75
2022/01/19 01:53:56;;;;;;;30.35;17.30;;;5.70;99.90;;;;;;5037254;28;20592;-75
2022/01/19 01:56:22;;;;;;;34.80;16.65;;;5.70;99.90;;;;;;5030620;28;20156;-74
2022/01/19 01:58:49;;;;;;;32.58;17.60;;;5.70;99.90;;;;;;5038326;28;20053;-74
2022/01/19 02:01:15;;;;;;;40.20;17.73;;;5.70;99.90;;;;;;5036359;28;20122;-76
2022/01/19 02:03:43;;;;;;;29.58;15.85;;;5.70;99.90;;;;;;5039253;28;20056;-76
2022/01/19 02:08:43;;;;;;;28.20;17.77;;;5.60;99.90;;;;;;5039325;28;20126;-75
2022/01/19 02:22:02;;;;;;;32.40;20.40;;;5.60;99.90;;;;;;5037840;28;20114;-76
2022/01/19 02:24:31;;;;;;;43.50;19.30;;;5.50;99.90;;;;;;5039205;28;20056;-76
2022/01/19 02:28:53;;;;;;;37.95;19.75;;;5.60;99.90;;;;;;5038723;28;20044;-76
2022/01/19 02:40:51;;;;;;;36.67;19.08;;;5.60;99.90;;;;;;5038609;28;20857;-75
2022/01/19 02:43:24;;;;;;;30.38;17.23;;;5.50;99.90;;;;;;5034228;28;20114;-76
2022/01/19 02:51:19;;;;;;;38.90;19.70;;;5.50;99.90;;;;;;5036238;28;20085;-76
2022/01/19 02:53:45;;;;;;;33.60;16.67;;;5.50;99.90;;;;;;5037994;28;20190;-76
2022/01/19 02:56:17;;;;;;;40.20;18.23;;;5.40;99.90;;;;;;5038605;28;20048;-76
2022/01/19 02:58:59;;;;;;;33.80;18.43;;;5.50;99.90;;;;;;5035956;28;20055;-76
2022/01/19 03:09:23;;;;;;;48.00;20.75;;;5.50;99.90;;;;;;5037166;28;20053;-75
2022/01/19 03:11:50;;;;;;;38.42;19.70;;;5.50;99.90;;;;;;5038165;28;20119;-76
2022/01/19 03:14:17;;;;;;;31.60;18.50;;;5.50;99.90;;;;;;5037489;28;20068;-75
2022/01/19 03:16:43;;;;;;;34.28;18.83;;;5.50;99.90;;;;;;5038003;28;20060;-76
2022/01/19 03:19:11;;;;;;;35.88;18.98;;;5.50;99.90;;;;;;5036154;28;20053;-75
2022/01/19 03:21:37;;;;;;;29.65;19.38;;;5.50;99.90;;;;;;5035865;28;20045;-75
2022/01/19 03:24:04;;;;;;;33.40;20.08;;;5.50;99.90;;;;;;5035745;28;20144;-75
2022/01/19 03:26:30;;;;;;;35.22;19.70;;;5.40;99.90;;;;;;5037610;28;20044;-76
2022/01/19 03:28:56;;;;;;;34.95;19.98;;;5.40;99.90;;;;;;5036133;28;20390;-75
2022/01/19 03:31:21;;;;;;;34.20;19.23;;;5.40;99.90;;;;;;5037668;28;20099;-75
2022/01/19 03:33:47;;;;;;;36.90;19.40;;;5.40;99.90;;;;;;5036889;28;20530;-75
2022/01/19 03:36:13;;;;;;;29.60;18.52;;;5.40;99.90;;;;;;5036755;28;20063;-75
2022/01/19 03:38:39;;;;;;;36.67;18.85;;;5.40;99.90;;;;;;5038113;28;20079;-76
2022/01/19 03:41:04;;;;;;;32.75;17.98;;;5.30;99.90;;;;;;5036231;28;20166;-75
2022/01/19 03:43:30;;;;;;;33.17;17.08;;;5.30;99.90;;;;;;5037878;28;20103;-75
2022/01/19 03:45:58;;;;;;;37.03;19.75;;;5.30;99.90;;;;;;5037734;28;20041;-75
2022/01/19 03:48:43;;;;;;;39.85;19.02;;;5.20;99.90;;;;;;5035964;28;20100;-75
2022/01/19 03:51:09;;;;;;;40.92;17.75;;;5.20;99.90;;;;;;5037026;28;20052;-76
2022/01/19 03:53:35;;;;;;;34.97;17.02;;;5.20;99.90;;;;;;5036107;28;20713;-75
2022/01/19 03:56:02;;;;;;;36.10;19.38;;;5.20;99.90;;;;;;5036312;28;20044;-75
2022/01/19 03:58:27;;;;;;;31.92;20.33;;;5.20;99.90;;;;;;5030667;28;20925;-75
2022/01/19 04:00:56;;;;;;;31.50;18.70;;;5.10;99.90;;;;;;5037316;28;20059;-75
2022/01/19 04:03:35;;;;;;;41.25;20.90;;;5.20;99.90;;;;;;5037702;28;20485;-75
2022/01/19 04:06:14;;;;;;;29.98;20.92;;;5.10;99.90;;;;;;5037790;28;20049;-75
2022/01/19 04:08:39;;;;;;;30.23;19.00;;;5.20;99.90;;;;;;5037850;28;20061;-75
2022/01/19 04:11:05;;;;;;;41.75;19.98;;;5.20;99.90;;;;;;5039486;28;20056;-75
2022/01/19 04:13:44;;;;;;;34.45;19.17;;;5.20;99.90;;;;;;5042584;28;20053;-76
2022/01/19 04:16:10;;;;;;;33.88;18.67;;;5.20;99.90;;;;;;5041047;28;20049;-75
2022/01/19 04:18:35;;;;;;;34.33;18.15;;;5.20;99.90;;;;;;5040615;28;20051;-75
2022/01/19 04:21:02;;;;;;;38.25;19.20;;;5.10;99.90;;;;;;5039678;28;20040;-75
2022/01/19 04:23:28;;;;;;;37.58;19.95;;;5.10;99.90;;;;;;5040389;28;20056;-75
2022/01/19 04:25:54;;;;;;;35.05;20.65;;;5.10;99.90;;;;;;5040788;28;20052;-75
2022/01/19 04:28:20;;;;;;;34.92;21.42;;;5.10;99.90;;;;;;5039856;28;20412;-76
2022/01/19 04:30:46;;;;;;;42.88;18.38;;;5.00;99.90;;;;;;5041322;28;20127;-75
2022/01/19 04:33:16;;;;;;;36.85;20.08;;;5.00;99.90;;;;;;5040584;28;20061;-75
2022/01/19 04:35:49;;;;;;;33.10;19.73;;;5.10;99.90;;;;;;5040578;28;20149;-75
2022/01/19 05:15:09;;;;;;;42.90;21.90;;;5.20;99.90;;;;;;5040544;28;20159;-75
2022/01/19 05:17:38;;;;;;;40.58;20.23;;;5.20;99.90;;;;;;5040764;28;20057;-75
2022/01/19 05:20:08;;;;;;;31.65;18.90;;;5.20;99.90;;;;;;5039397;28;20049;-76
2022/01/19 05:22:35;;;;;;;43.35;21.80;;;5.20;99.90;;;;;;5038656;28;20559;-76
2022/01/19 05:25:01;;;;;;;33.53;20.55;;;5.20;99.90;;;;;;5039335;28;20056;-76
2022/01/19 05:27:27;;;;;;;28.55;19.50;;;5.20;99.90;;;;;;5040389;28;20063;-76
2022/01/19 05:29:53;;;;;;;32.53;18.17;;;5.20;99.90;;;;;;5039724;28;20053;-75
2022/01/19 05:32:19;;;;;;;40.03;19.88;;;5.30;99.90;;;;;;5039579;28;20099;-75
2022/01/19 05:34:44;;;;;;;29.85;18.20;;;5.30;99.90;;;;;;5038541;28;20047;-76
2022/01/19 05:37:10;;;;;;;39.58;20.55;;;5.30;99.90;;;;;;5039070;28;20057;-75
2022/01/19 05:39:36;;;;;;;38.92;19.65;;;5.30;99.90;;;;;;5040220;28;20037;-75
2022/01/19 05:42:01;;;;;;;37.67;20.45;;;5.40;99.90;;;;;;5039118;28;20430;-75
2022/01/19 05:44:27;;;;;;;39.75;21.08;;;5.40;99.90;;;;;;5039489;28;20817;-75
2022/01/19 05:46:53;;;;;;;37.50;19.83;;;5.50;99.90;;;;;;5036563;28;20067;-75
2022/01/19 05:49:18;;;;;;;39.17;19.60;;;5.40;99.90;;;;;;5037900;28;20048;-75
2022/01/19 05:51:45;;;;;;;39.78;21.23;;;5.40;99.90;;;;;;5036815;28;20059;-75
2022/01/19 05:54:11;;;;;;;36.25;19.05;;;5.40;99.90;;;;;;5038517;28;20872;-75
2022/01/19 05:56:36;;;;;;;30.00;17.55;;;5.40;99.90;;;;;;5037858;28;20061;-76
2022/01/19 05:59:02;;;;;;;33.05;20.63;;;5.40;99.90;;;;;;5039140;28;20055;-75
2022/01/19 06:01:28;;;;;;;37.90;20.48;;;5.40;99.90;;;;;;5037100;28;20045;-75
2022/01/19 06:03:53;;;;;;;35.97;19.20;;;5.50;99.90;;;;;;5034247;28;20060;-74
2022/01/19 06:06:19;;;;;;;36.45;20.05;;;5.40;99.90;;;;;;5035573;28;20094;-76
2022/01/19 06:08:48;;;;;;;35.83;21.65;;;5.50;99.90;;;;;;5035422;28;20055;-75
2022/01/19 06:11:16;;;;;;;39.42;18.92;;;5.50;99.90;;;;;;5035362;28;20080;-76
2022/01/19 06:13:41;;;;;;;34.33;19.42;;;5.50;99.90;;;;;;5037357;28;20055;-76
2022/01/19 06:16:07;;;;;;;36.58;20.20;;;5.60;99.90;;;;;;5035952;28;20052;-76
2022/01/19 06:18:33;;;;;;;27.48;16.02;;;5.60;99.90;;;;;;5036053;28;20946;-76
2022/01/19 06:20:58;;;;;;;30.90;20.85;;;5.60;99.90;;;;;;5034267;28;20143;-76
2022/01/19 06:23:24;;;;;;;36.65;20.00;;;5.70;99.90;;;;;;5034390;28;20057;-76
2022/01/19 06:25:51;;;;;;;34.30;19.92;;;5.70;99.90;;;;;;5035425;28;20049;-76
2022/01/19 06:28:16;;;;;;;35.80;20.95;;;5.70;99.90;;;;;;5034555;28;20052;-76
2022/01/19 06:30:42;;;;;;;39.00;21.23;;;5.60;99.90;;;;;;5036205;28;20099;-76
2022/01/19 06:33:08;;;;;;;31.95;20.17;;;5.70;99.90;;;;;;5034808;28;20056;-76
2022/01/19 06:35:33;;;;;;;39.92;20.02;;;5.70;99.90;;;;;;5035790;28;20053;-76
2022/01/19 06:37:59;;;;;;;36.58;19.80;;;5.70;99.90;;;;;;5036047;28;20807;-76
2022/01/19 06:40:27;;;;;;;41.00;19.92;;;5.60;99.90;;;;;;5035038;28;20037;-75
2022/01/19 06:42:54;;;;;;;35.50;22.02;;;5.60;99.90;;;;;;5035014;28;20068;-76
2022/01/19 06:45:21;;;;;;;34.22;18.52;;;5.60;99.90;;;;;;5036255;28;20055;-75
2022/01/19 06:47:46;;;;;;;45.13;21.85;;;5.60;99.90;;;;;;5036146;28;20045;-75
2022/01/19 06:50:12;;;;;;;36.50;22.08;;;5.60;99.90;;;;;;5032940;28;20622;-76
2022/01/19 06:52:39;;;;;;;38.28;21.65;;;5.50;99.90;;;;;;5032724;28;20039;-75
2022/01/19 06:55:08;;;;;;;38.63;20.85;;;5.60;99.90;;;;;;5065201;28;20057;-75
2022/01/19 06:57:33;;;;;;;39.05;22.20;;;5.50;99.90;;;;;;5032979;28;20041;-75
2022/01/19 06:59:59;;;;;;;34.38;19.33;;;5.60;99.90;;;;;;5033484;28;20056;-76
2022/01/19 07:02:25;;;;;;;30.80;19.52;;;5.60;99.90;;;;;;5033934;28;20040;-75
2022/01/19 07:04:51;;;;;;;38.45;21.90;;;5.60;99.90;;;;;;5035316;28;20068;-75
2022/01/19 07:07:19;;;;;;;38.95;20.45;;;5.50;99.90;;;;;;5034488;28;20045;-75
2022/01/19 07:09:46;;;;;;;40.40;20.08;;;5.50;99.90;;;;;;5033624;28;20067;-75
2022/01/19 07:12:12;;;;;;;34.60;21.02;;;5.50;99.90;;;;;;5035037;28;20049;-76
2022/01/19 07:14:39;;;;;;;36.20;21.00;;;5.40;99.90;;;;;;5034297;28;20052;-76
2022/01/19 07:17:05;;;;;;;37.22;19.98;;;5.70;99.90;;;;;;5034167;28;20055;-76
2022/01/19 07:19:30;;;;;;;35.88;21.98;;;5.50;99.90;;;;;;5032934;28;20333;-75
2022/01/19 07:21:56;;;;;;;36.95;20.25;;;5.50;99.90;;;;;;5031900;28;20045;-75
2022/01/19 07:24:22;;;;;;;36.22;22.60;;;5.50;99.90;;;;;;5033789;28;20084;-75
2022/01/19 07:26:48;;;;;;;38.10;21.25;;;5.60;99.90;;;;;;5067198;28;20777;-76
2022/01/19 07:29:14;;;;;;;37.53;20.55;;;5.50;99.90;;;;;;5033907;28;20048;-75
2022/01/19 07:31:41;;;;;;;37.22;20.35;;;5.50;99.90;;;;;;5033490;28;20771;-76
2022/01/19 07:34:07;;;;;;;39.08;22.10;;;5.50;99.90;;;;;;5033348;28;20098;-76
2022/01/19 07:36:32;;;;;;;35.63;19.42;;;5.60;99.90;;;;;;5033315;28;20083;-76
2022/01/19 07:38:58;;;;;;;39.88;22.23;;;5.50;99.90;;;;;;5034709;28;20040;-76
2022/01/19 07:41:24;;;;;;;36.15;19.55;;;5.50;99.90;;;;;;5032795;28;20126;-76
2022/01/19 07:43:49;;;;;;;42.58;22.38;;;5.50;99.90;;;;;;5029490;28;20755;-76
2022/01/19 07:46:16;;;;;;;42.35;23.05;;;5.50;99.90;;;;;;5031857;28;20844;-76
2022/01/19 07:48:42;;;;;;;34.13;21.40;;;5.50;99.90;;;;;;5032863;28;20060;-76
2022/01/19 07:51:08;;;;;;;35.53;20.33;;;5.40;99.90;;;;;;5032963;28;20044;-76
2022/01/19 07:53:34;;;;;;;42.00;21.30;;;5.40;99.90;;;;;;5032818;28;20060;-76
2022/01/19 07:55:59;;;;;;;41.97;21.90;;;5.40;99.90;;;;;;5029377;28;20045;-76
2022/01/19 07:58:25;;;;;;;40.72;22.02;;;5.40;99.90;;;;;;5030102;28;20148;-76
2022/01/19 08:00:51;;;;;;;40.10;22.38;;;5.40;99.90;;;;;;5032042;28;20761;-76
2022/01/19 08:03:16;;;;;;;41.40;21.30;;;5.30;99.90;;;;;;5029708;28;20161;-76
2022/01/19 08:05:42;;;;;;;33.45;20.73;;;5.30;99.90;;;;;;5027894;28;20073;-76
2022/01/19 08:08:07;;;;;;;35.30;21.75;;;5.30;99.90;;;;;;5033469;28;20057;-76
2022/01/19 08:10:33;;;;;;;36.55;19.45;;;6.10;99.90;;;;;;5033268;28;20394;-76
2022/01/19 08:13:04;;;;;;;36.60;21.63;;;5.20;99.90;;;;;;5031021;28;20138;-76
2022/01/19 08:15:30;;;;;;;41.00;22.13;;;5.20;99.90;;;;;;5029857;28;20053;-76
2022/01/19 08:17:56;;;;;;;36.95;20.77;;;5.20;99.90;;;;;;5062703;28;20068;-76
2022/01/19 08:20:21;;;;;;;37.33;20.38;;;5.20;99.90;;;;;;5031521;28;20477;-76
2022/01/19 08:22:47;;;;;;;34.80;21.25;;;5.30;99.90;;;;;;5032667;28;20068;-76
2022/01/19 08:25:12;;;;;;;38.17;20.45;;;5.30;99.90;;;;;;5031940;28;20053;-76
2022/01/19 08:27:38;;;;;;;32.70;19.90;;;5.20;99.90;;;;;;5032001;28;20520;-76
2022/01/19 08:30:09;;;;;;;41.10;20.38;;;5.20;99.90;;;;;;5032498;28;20044;-76
2022/01/19 08:32:35;;;;;;;41.25;22.13;;;5.20;99.90;;;;;;5031890;28;20045;-76
2022/01/19 08:35:05;;;;;;;37.90;19.02;;;5.20;99.90;;;;;;5028440;28;20057;-76
2022/01/19 08:37:31;;;;;;;35.30;20.55;;;5.10;99.90;;;;;;5032837;28;20045;-76
2022/01/19 08:39:57;;;;;;;35.47;19.10;;;5.10;99.90;;;;;;5030280;28;20048;-77
2022/01/19 08:42:23;;;;;;;37.35;22.60;;;5.20;99.90;;;;;;5033985;28;20061;-76
2022/01/19 08:44:49;;;;;;;30.33;18.52;;;5.10;99.90;;;;;;5031288;28;20053;-76
2022/01/19 08:47:15;;;;;;;32.97;17.92;;;4.70;99.90;;;;;;5026931;28;20041;-75
2022/01/19 08:49:41;;;;;;;38.00;19.85;;;5.20;99.90;;;;;;5032637;28;20052;-76
2022/01/19 08:52:07;;;;;;;29.98;19.95;;;5.20;99.90;;;;;;5023142;28;20141;-76
2022/01/19 08:54:33;;;;;;;34.97;18.92;;;5.20;99.90;;;;;;5028053;28;20226;-76
2022/01/19 08:57:00;;;;;;;34.75;18.98;;;5.20;99.90;;;;;;5028702;28;20094;-75
2022/01/19 08:59:26;;;;;;;43.10;22.20;;;5.20;99.90;;;;;;5034492;28;20068;-76
2022/01/19 09:01:51;;;;;;;34.85;19.77;;;5.20;99.90;;;;;;5037023;28;20067;-76
2022/01/19 09:04:18;;;;;;;35.20;20.67;;;5.20;99.90;;;;;;5035321;28;20103;-76
2022/01/19 09:06:44;;;;;;;30.52;18.75;;;5.20;99.90;;;;;;5036735;28;20132;-75
2022/01/19 09:09:10;;;;;;;35.45;20.27;;;5.20;99.90;;;;;;5037582;28;20900;-76
2022/01/19 09:11:35;;;;;;;27.38;19.30;;;5.20;99.90;;;;;;5037717;28;20049;-76
2022/01/19 09:14:03;;;;;;;35.35;21.60;;;5.10;99.90;;;;;;5037534;28;20037;-74
2022/01/19 09:16:29;;;;;;;33.13;20.65;;;5.20;99.90;;;;;;5036377;28;20053;-76
2022/01/19 09:18:55;;;;;;;35.45;19.63;;;5.30;99.90;;;;;;5035371;28;20809;-76
2022/01/19 09:21:21;;;;;;;38.90;21.20;;;5.30;99.90;;;;;;5036244;28;20080;-76
2022/01/19 09:23:47;;;;;;;33.38;19.15;;;5.30;99.90;;;;;;5036662;28;20079;-77
2022/01/19 09:26:12;;;;;;;31.80;20.33;;;5.30;99.90;;;;;;5034781;28;20065;-76
2022/01/19 09:28:39;;;;;;;32.67;19.40;;;5.40;99.90;;;;;;5036403;28;20158;-76
2022/01/19 09:31:11;;;;;;;39.28;21.45;;;6.00;99.90;;;;;;5035853;28;20076;-72
2022/01/19 09:33:36;;;;;;;39.88;21.20;;;5.40;99.90;;;;;;5036579;28;20244;-73
2022/01/19 09:38:35;;;;;;;36.78;19.40;;;5.50;99.90;;;;;;5040884;28;20092;-76
2022/01/19 09:41:01;;;;;;;38.33;22.07;;;5.50;99.90;;;;;;5039402;28;20774;-76
2022/01/19 09:43:26;;;;;;;36.33;19.95;;;5.50;99.90;;;;;;5037663;28;20127;-76
2022/01/19 09:45:54;;;;;;;34.72;20.40;;;5.50;99.90;;;;;;5040420;28;20053;-77
2022/01/19 09:48:21;;;;;;;35.10;19.35;;;5.50;99.90;;;;;;5039718;28;20053;-76
2022/01/19 09:50:46;;;;;;;29.98;18.25;;;5.60;99.90;;;;;;5039197;28;20487;-76
2022/01/19 09:53:13;;;;;;;35.55;21.00;;;5.60;99.90;;;;;;5039151;28;20049;-75
2022/01/19 09:55:40;;;;;;;34.30;19.33;;;5.60;99.90;;;;;;5038260;28;20154;-76
2022/01/19 09:58:07;;;;;;;37.22;21.63;;;5.60;99.90;;;;;;5036691;28;20045;-75
2022/01/19 10:00:32;;;;;;;28.23;19.20;;;5.70;99.90;;;;;;5038536;28;20171;-75
2022/01/19 10:03:17;;;;;;;31.90;18.73;;;5.60;99.90;;;;;;5037949;28;20052;-77
2022/01/19 10:05:58;;;;;;;31.55;18.38;;;5.70;99.90;;;;;;5039371;28;20071;-75
2022/01/19 10:08:34;;;;;;;41.50;20.75;;;5.70;99.90;;;;;;5039877;28;20059;-74
2022/01/19 10:11:05;;;;;;;27.63;18.05;;;5.70;99.90;;;;;;5039376;28;20558;-74
2022/01/19 10:19:23;;;;;;;35.88;20.40;;;5.80;99.90;;;;;;5038157;28;20051;-74
2022/01/19 10:22:22;;;;;;;28.98;19.13;;;5.80;99.90;;;;;;5039513;28;20064;-74
2022/01/19 10:24:50;;;;;;;36.28;19.20;;;5.80;99.90;;;;;;5038037;28;20049;-74
2022/01/19 10:27:17;;;;;;;35.00;21.60;;;5.80;99.90;;;;;;5037726;28;20067;-74
2022/01/19 10:29:42;;;;;;;31.30;21.02;;;5.80;99.90;;;;;;5037623;28;20521;-74
2022/01/19 10:32:08;;;;;;;31.85;21.02;;;5.80;99.90;;;;;;5039419;28;20053;-74
2022/01/19 10:34:34;;;;;;;35.95;20.92;;;5.80;99.90;;;;;;5038456;28;20143;-74
2022/01/19 10:37:04;;;;;;;31.40;18.73;;;5.80;99.90;;;;;;5039023;28;20052;-74
2022/01/19 10:39:57;;;;;;;37.60;22.92;;;5.80;99.90;;;;;;5038937;28;20071;-74
2022/01/19 10:42:29;;;;;;;32.65;20.13;;;5.80;99.90;;;;;;5037870;28;20092;-74
2022/01/19 10:45:03;;;;;;;35.55;19.48;;;5.80;99.90;;;;;;5037320;28;20057;-74
2022/01/19 10:47:46;;;;;;;32.72;20.48;;;5.80;99.90;;;;;;5038835;28;20080;-74
2022/01/19 10:50:30;;;;;;;34.20;21.17;;;5.70;99.90;;;;;;5037115;28;20099;-74
2022/01/19 10:52:56;;;;;;;;;;;5.70;99.90;;;;;;5036872;28;20519;-74
2022/01/19 10:55:28;;;;;;;35.83;22.98;;;5.70;99.90;;;;;;5037257;28;19924;-75
2022/01/19 10:57:54;;;;;;;36.50;20.88;;;5.70;99.90;;;;;;5037543;28;20401;-74
2022/01/19 11:00:25;;;;;;;36.72;21.73;;;5.80;99.90;;;;;;5037052;28;20083;-65
2022/01/19 11:02:53;;;;;;;40.60;23.13;;;5.70;99.90;;;;;;5037402;28;20095;-75
2022/01/19 11:05:43;;;;;;;36.33;21.23;;;5.80;99.90;;;;;;5037936;28;20144;-75
2022/01/19 11:08:09;;;;;;;37.47;24.10;;;5.80;99.90;;;;;;5038059;28;20500;-75
2022/01/19 11:10:35;;;;;;;39.45;24.17;;;5.80;99.90;;;;;;5034580;28;20825;-74
2022/01/19 11:13:00;;;;;;;39.17;20.88;;;5.80;99.90;;;;;;5035195;28;20045;-74
2022/01/19 11:15:26;;;;;;;32.13;20.80;;;5.80;99.90;;;;;;5036336;28;20045;-75
2022/01/19 11:17:52;;;;;;;31.70;20.17;;;5.80;99.90;;;;;;5034613;28;20111;-75
2022/01/19 11:20:24;;;;;;;33.15;21.17;;;5.80;99.90;;;;;;5034685;28;20037;-75
2022/01/19 11:23:34;;;;;;;38.05;22.38;;;5.80;99.90;;;;;;5035641;28;20125;-75
2022/01/19 11:26:01;;;;;;;33.90;22.45;;;5.80;99.90;;;;;;5019166;28;20064;-74
2022/01/19 11:28:36;;;;;;;38.40;22.35;;;5.80;99.90;;;;;;5035896;28;20106;-75
2022/01/19 11:31:31;;;;;;;42.72;21.38;;;5.80;99.90;;;;;;5034269;28;20040;-75
2022/01/19 11:33:58;;;;;;;36.65;21.25;;;5.80;99.90;;;;;;5035012;28;20056;-75
2022/01/19 11:36:26;;;;;;;35.47;22.65;;;5.80;99.90;;;;;;5035456;28;20049;-75
2022/01/19 11:39:09;;;;;;;36.72;21.92;;;5.90;99.90;;;;;;5033867;28;20090;-74
2022/01/19 11:41:45;;;;;;;34.83;22.58;;;5.90;99.90;;;;;;5035288;28;20080;-75
2022/01/19 11:44:18;;;;;;;41.58;22.95;;;5.90;99.90;;;;;;5035158;28;20053;-75
2022/01/19 11:46:46;;;;;;;41.23;23.77;;;5.90;99.90;;;;;;5034974;28;20484;-75
2022/01/19 11:49:14;;;;;;;38.42;22.77;;;5.90;99.90;;;;;;5034956;28;20307;-75
2022/01/19 11:51:45;;;;;;;39.75;25.17;;;5.90;99.90;;;;;;5035596;28;20049;-74
2022/01/19 11:54:17;;;;;;;48.63;26.42;;;5.90;99.90;;;;;;5035684;28;20675;-74
2022/01/19 11:56:58;;;;;;;46.60;25.88;;;5.90;99.90;;;;;;5035150;28;20541;-75
2022/01/19 11:59:46;;;;;;;43.72;25.77;;;6.00;99.90;;;;;;5033418;28;20040;-75
2022/01/19 12:02:29;;;;;;;39.05;23.80;;;6.00;99.90;;;;;;5034387;28;20053;-74
2022/01/19 12:05:10;;;;;;;41.70;25.73;;;6.00;99.90;;;;;;5033305;28;20045;-75
2022/01/19 12:07:42;;;;;;;44.45;25.65;;;6.00;99.90;;;;;;5034073;28;20057;-76
2022/01/19 12:10:11;;;;;;;42.47;26.20;;;6.00;99.90;;;;;;5036659;28;20055;-76
2022/01/19 12:12:47;;;;;;;40.75;28.23;;;6.10;99.90;;;;;;5038103;28;20049;-76
2022/01/19 12:15:57;;;;;;;46.17;24.90;;;6.20;99.90;;;;;;5038544;28;20049;-75
2022/01/19 12:18:46;;;;;;;46.53;27.10;;;6.30;99.90;;;;;;5036592;28;20288;-74
2022/01/19 12:21:14;;;;;;;50.40;29.75;;;6.30;99.90;;;;;;5035878;28;20045;-75
2022/01/19 12:23:42;;;;;;;47.00;28.77;;;6.30;99.90;;;;;;5036884;28;20560;-75
2022/01/19 12:26:10;;;;;;;39.13;25.70;;;6.40;99.90;;;;;;5036007;28;20163;-75
2022/01/19 12:28:44;;;;;;;54.88;27.05;;;6.30;99.90;;;;;;5036296;28;20615;-75
2022/01/19 12:31:22;;;;;;;47.45;27.30;;;6.40;99.90;;;;;;5037309;28;20087;-75
2022/01/19 12:34:11;;;;;;;46.85;25.92;;;6.30;99.90;;;;;;5039943;28;20110;-75
2022/01/19 12:36:44;;;;;;;45.05;25.27;;;6.30;99.90;;;;;;5038283;28;20844;-75
2022/01/19 12:39:25;;;;;;;43.40;26.00;;;6.30;99.90;;;;;;5041272;28;20100;-75
2022/01/19 12:41:59;;;;;;;44.50;24.08;;;6.20;99.90;;;;;;5040331;28;20106;-75
2022/01/19 12:44:55;;;;;;;50.60;25.98;;;6.20;99.90;;;;;;5040685;28;20161;-74
2022/01/19 12:47:27;;;;;;;40.90;24.55;;;6.20;99.90;;;;;;5036787;28;20076;-74
2022/01/19 12:49:57;;;;;;;51.08;25.65;;;6.30;99.90;;;;;;5039107;28;20053;-74
2022/01/19 12:52:25;;;;;;;46.85;23.42;;;6.30;99.90;;;;;;5029928;28;20139;-74
2022/01/19 12:54:53;;;;;;;45.92;23.05;;;6.40;99.90;;;;;;5032692;28;20048;-76
2022/01/19 12:57:19;;;;;;;43.95;23.00;;;6.30;99.90;;;;;;5037892;28;20045;-77
2022/01/19 12:59:47;;;;;;;42.42;24.08;;;6.30;99.90;;;;;;5035598;28;20060;-74
2022/01/19 13:02:16;;;;;;;47.30;25.10;;;6.30;99.90;;;;;;5033895;28;20063;-74
2022/01/19 13:04:47;;;;;;;33.42;20.25;;;6.30;99.90;;;;;;5035667;28;20083;-73
2022/01/19 13:07:17;;;;;;;43.13;23.55;;;6.30;99.90;;;;;;5035270;28;20062;-74
2022/01/19 13:10:06;;;;;;;41.03;23.10;;;6.30;99.90;;;;;;5035034;28;20057;-73
2022/01/19 13:12:43;;;;;;;40.83;21.92;;;6.40;99.90;;;;;;5035920;28;20044;-73
2022/01/19 13:15:09;;;;;;;42.50;22.67;;;6.40;99.90;;;;;;5032138;28;20056;-74
2022/01/19 13:17:45;;;;;;;43.35;20.30;;;6.50;99.90;;;;;;5032732;28;20045;-73
2022/01/19 13:20:18;;;;;;;37.83;20.77;;;6.60;99.90;;;;;;5035610;28;20140;-73
2022/01/19 13:22:52;;;;;;;39.78;23.60;;;6.70;99.90;;;;;;5036082;28;20599;-72
2022/01/19 13:25:21;;;;;;;48.67;24.65;;;6.70;99.90;;;;;;5035652;28;20122;-73
2022/01/19 13:27:48;;;;;;;41.10;21.67;;;6.70;99.90;;;;;;5035981;28;20045;-74
2022/01/19 13:30:15;;;;;;;40.38;23.20;;;6.70;99.90;;;;;;5036813;28;20080;-73
2022/01/19 13:32:41;;;;;;;48.85;25.23;;;6.70;99.90;;;;;;5034888;28;20052;-73
2022/01/19 13:35:11;;;;;;;44.75;23.02;;;6.70;99.90;;;;;;5035385;28;20110;-72
2022/01/19 13:37:45;;;;;;;39.65;23.33;;;6.70;99.90;;;;;;5036830;28;20408;-73
2022/01/19 13:40:15;;;;;;;44.63;23.08;;;6.70;99.90;;;;;;5036573;28;20502;-73
2022/01/19 13:42:45;;;;;;;44.33;22.17;;;6.60;99.90;;;;;;5033650;28;20547;-73
2022/01/19 13:45:36;;;;;;;43.20;21.40;;;6.60;99.90;;;;;;5034383;28;20794;-74
2022/01/19 13:50:49;;;;;;;36.80;21.85;;;6.50;99.90;;;;;;5030982;28;20060;-73
2022/01/19 13:53:23;;;;;;;35.85;20.50;;;6.60;99.90;;;;;;5027586;28;20128;-73
2022/01/19 13:55:49;;;;;;;40.70;19.73;;;6.50;99.90;;;;;;5029682;28;20052;-73
2022/01/19 13:58:16;;;;;;;36.03;21.67;;;6.50;99.90;;;;;;5032545;28;20040;-73
2022/01/19 14:00:57;;;;;;;36.80;21.77;;;6.50;99.90;;;;;;5030767;28;20076;-73
2022/01/19 14:03:25;;;;;;;43.80;20.63;;;6.50;99.90;;;;;;5032469;28;20585;-73
2022/01/19 14:05:55;;;;;;;37.15;17.42;;;6.50;99.90;;;;;;5035895;28;20072;-73
2022/01/19 14:08:28;;;;;;;40.80;20.92;;;6.50;99.90;;;;;;5035513;28;20152;-74
2022/01/19 14:10:54;;;;;;;36.60;21.70;;;6.40;99.90;;;;;;5034123;28;20053;-74
2022/01/19 14:13:28;;;;;;;37.55;20.98;;;6.40;99.90;;;;;;5034441;28;20052;-74
2022/01/19 14:16:15;;;;;;;35.70;22.58;;;6.40;99.90;;;;;;5034649;28;20053;-73
2022/01/19 14:18:41;;;;;;;39.95;21.42;;;6.30;99.90;;;;;;5035983;28;20379;-75